AVA119 KMCO-SKBO
Flight info
| Callsign | AVA119 |
|---|---|
| Flight time | 3h 25m |
| Altitude | 35000 |
| Route | DDANY3 VALKA DCT TRV DCT TOVAR Y297 URSUS UP406 AKPEK UQ121 ISVAT ISVAT5W |
| Aircraft | A320/M-SDE3FGHIRWY/LB1 |
Departure
| Time | 2026-04-24 21:08 |
|---|---|
| Airport | Orlando International Airport (KMCO) |
Arrival
| Time | 2026-04-25 00:33 |
|---|---|
| Airport | El Dorado International Airport (SKBO) |
| Time | Latitude | Longitude | Altitude | Speed | Heading |
|---|---|---|---|---|---|
| 2026-04-24 20:26 | 28.42559 | -81.30104 | 103 ft | 0 kts | 55° |
| 2026-04-24 20:53 | 28.42557 | -81.30105 | 103 ft | 3 kts | 82° |
| 2026-04-24 20:53 | 28.42549 | -81.30087 | 103 ft | 3 kts | 121° |
| 2026-04-24 20:54 | 28.42554 | -81.30101 | 103 ft | 3 kts | 86° |
| 2026-04-24 20:54 | 28.42548 | -81.30117 | 102 ft | 3 kts | 43° |
| 2026-04-24 20:54 | 28.42533 | -81.30132 | 102 ft | 3 kts | 36° |
| 2026-04-24 20:54 | 28.42516 | -81.30145 | 103 ft | 3 kts | 30° |
| 2026-04-24 20:55 | 28.42498 | -81.30156 | 102 ft | 3 kts | 31° |
| 2026-04-24 20:55 | 28.42482 | -81.30169 | 102 ft | 3 kts | 56° |
| 2026-04-24 20:55 | 28.42477 | -81.30178 | 101 ft | 1 kts | 116° |
| 2026-04-24 20:55 | 28.42478 | -81.30180 | 102 ft | 0 kts | 120° |
| 2026-04-24 20:57 | 28.42478 | -81.30179 | 102 ft | 0 kts | 120° |
| 2026-04-24 20:57 | 28.42471 | -81.30166 | 101 ft | 5 kts | 120° |
| 2026-04-24 20:58 | 28.42442 | -81.30109 | 103 ft | 9 kts | 120° |
| 2026-04-24 20:58 | 28.42430 | -81.30086 | 103 ft | 0 kts | 120° |
| 2026-04-24 20:58 | 28.42429 | -81.30079 | 103 ft | 4 kts | 105° |
| 2026-04-24 20:58 | 28.42429 | -81.30048 | 103 ft | 3 kts | 86° |
| 2026-04-24 20:59 | 28.42435 | -81.29996 | 103 ft | 12 kts | 77° |
| 2026-04-24 20:59 | 28.42480 | -81.29919 | 103 ft | 11 kts | 40° |
| 2026-04-24 20:59 | 28.42542 | -81.29884 | 103 ft | 9 kts | 15° |
| 2026-04-24 20:59 | 28.42580 | -81.29871 | 103 ft | 0 kts | 23° |
| 2026-04-24 21:01 | 28.42581 | -81.29870 | 103 ft | 1 kts | 23° |
| 2026-04-24 21:02 | 28.42595 | -81.29852 | 102 ft | 7 kts | 64° |
| 2026-04-24 21:02 | 28.42641 | -81.29797 | 103 ft | 12 kts | 8° |
| 2026-04-24 21:02 | 28.42726 | -81.29797 | 103 ft | 15 kts | 359° |
| 2026-04-24 21:02 | 28.42843 | -81.29797 | 103 ft | 19 kts | 0° |
| 2026-04-24 21:03 | 28.42981 | -81.29800 | 103 ft | 20 kts | 359° |
| 2026-04-24 21:03 | 28.43125 | -81.29801 | 103 ft | 21 kts | 360° |
| 2026-04-24 21:03 | 28.43274 | -81.29803 | 103 ft | 22 kts | 359° |
| 2026-04-24 21:03 | 28.43414 | -81.29805 | 103 ft | 20 kts | 359° |
| 2026-04-24 21:04 | 28.43536 | -81.29792 | 104 ft | 16 kts | 40° |
| 2026-04-24 21:04 | 28.43550 | -81.29703 | 103 ft | 5 kts | 90° |
| 2026-04-24 21:04 | 28.43551 | -81.29697 | 103 ft | 0 kts | 90° |
| 2026-04-24 21:06 | 28.43551 | -81.29691 | 103 ft | 3 kts | 90° |
| 2026-04-24 21:07 | 28.43551 | -81.29643 | 103 ft | 6 kts | 89° |
| 2026-04-24 21:07 | 28.43551 | -81.29603 | 104 ft | 4 kts | 89° |
| 2026-04-24 21:07 | 28.43527 | -81.29588 | 104 ft | 10 kts | 171° |
| 2026-04-24 21:07 | 28.43226 | -81.29584 | 107 ft | 78 kts | 179° |
| 2026-04-24 21:08 | 28.42483 | -81.29579 | 100 ft | 136 kts | 180° |
| 2026-04-24 21:08 | 28.41389 | -81.29574 | 224 ft | 169 kts | 182° |
| 2026-04-24 21:08 | 28.40209 | -81.29573 | 882 ft | 169 kts | 179° |
| 2026-04-24 21:08 | 28.39026 | -81.29523 | 1453 ft | 176 kts | 175° |
| 2026-04-24 21:09 | 28.37781 | -81.29103 | 1678 ft | 198 kts | 149° |
| 2026-04-24 21:09 | 28.36639 | -81.28132 | 1913 ft | 218 kts | 135° |
| 2026-04-24 21:09 | 28.35846 | -81.26573 | 2165 ft | 243 kts | 107° |
| 2026-04-24 21:09 | 28.35365 | -81.24655 | 2651 ft | 257 kts | 106° |
| 2026-04-24 21:10 | 28.34887 | -81.22677 | 3422 ft | 262 kts | 106° |
| 2026-04-24 21:10 | 28.34401 | -81.20661 | 4137 ft | 268 kts | 106° |
| 2026-04-24 21:10 | 28.33905 | -81.18613 | 4827 ft | 274 kts | 106° |
| 2026-04-24 21:10 | 28.33392 | -81.16507 | 5570 ft | 279 kts | 106° |
| 2026-04-24 21:11 | 28.32867 | -81.14358 | 6274 ft | 285 kts | 105° |
| 2026-04-24 21:11 | 28.32338 | -81.12204 | 6991 ft | 289 kts | 106° |
| 2026-04-24 21:11 | 28.31791 | -81.09992 | 7688 ft | 293 kts | 105° |
| 2026-04-24 21:11 | 28.31234 | -81.07748 | 8411 ft | 296 kts | 105° |
| 2026-04-24 21:12 | 28.30670 | -81.05481 | 9133 ft | 299 kts | 105° |
| 2026-04-24 21:12 | 28.30101 | -81.03188 | 9845 ft | 303 kts | 105° |
| 2026-04-24 21:12 | 28.29522 | -81.00854 | 10279 ft | 317 kts | 105° |
| 2026-04-24 21:12 | 28.28910 | -80.98387 | 10452 ft | 340 kts | 105° |
| 2026-04-24 21:13 | 28.28249 | -80.95719 | 10582 ft | 362 kts | 105° |
| 2026-04-24 21:13 | 28.27550 | -80.92912 | 10967 ft | 373 kts | 105° |
| 2026-04-24 21:13 | 28.26840 | -80.90056 | 11507 ft | 378 kts | 105° |
| 2026-04-24 21:13 | 28.26122 | -80.87161 | 12092 ft | 383 kts | 105° |
| 2026-04-24 21:14 | 28.25397 | -80.84240 | 12687 ft | 387 kts | 105° |
| 2026-04-24 21:14 | 28.24668 | -80.81317 | 13277 ft | 390 kts | 105° |
| 2026-04-24 21:14 | 28.23923 | -80.78336 | 13812 ft | 394 kts | 105° |
| 2026-04-24 21:14 | 28.23172 | -80.75329 | 13956 ft | 395 kts | 106° |
| 2026-04-24 21:15 | 28.22198 | -80.72460 | 13996 ft | 395 kts | 117° |
| 2026-04-24 21:15 | 28.20714 | -80.69850 | 13992 ft | 394 kts | 130° |
| 2026-04-24 21:15 | 28.18783 | -80.67644 | 13991 ft | 393 kts | 142° |
| 2026-04-24 21:15 | 28.16511 | -80.65942 | 13990 ft | 391 kts | 154° |
| 2026-04-24 21:16 | 28.13999 | -80.64796 | 13990 ft | 388 kts | 165° |
| 2026-04-24 21:16 | 28.11403 | -80.63905 | 13986 ft | 388 kts | 165° |
| 2026-04-24 21:16 | 28.08816 | -80.63014 | 13987 ft | 389 kts | 165° |
| 2026-04-24 21:16 | 28.06258 | -80.62128 | 13987 ft | 388 kts | 165° |
| 2026-04-24 21:17 | 28.03669 | -80.61229 | 13981 ft | 390 kts | 165° |
| 2026-04-24 21:17 | 28.01064 | -80.60326 | 13992 ft | 391 kts | 165° |
| 2026-04-24 21:17 | 27.98457 | -80.59428 | 13993 ft | 391 kts | 165° |
| 2026-04-24 21:17 | 27.96729 | -80.58836 | 14130 ft | 394 kts | 165° |
| 2026-04-24 21:18 | 27.93236 | -80.57641 | 14875 ft | 396 kts | 165° |
| 2026-04-24 21:18 | 27.90582 | -80.56730 | 15392 ft | 400 kts | 165° |
| 2026-04-24 21:18 | 27.87901 | -80.55810 | 15889 ft | 403 kts | 165° |
| 2026-04-24 21:18 | 27.85199 | -80.54884 | 16390 ft | 406 kts | 165° |
| 2026-04-24 21:19 | 27.82482 | -80.53954 | 16873 ft | 410 kts | 165° |
| 2026-04-24 21:19 | 27.79772 | -80.53026 | 17382 ft | 412 kts | 165° |
| 2026-04-24 21:19 | 27.77013 | -80.52083 | 17868 ft | 415 kts | 165° |
| 2026-04-24 21:19 | 27.74238 | -80.51135 | 18320 ft | 418 kts | 165° |
| 2026-04-24 21:20 | 27.68645 | -80.49236 | 19123 ft | 423 kts | 166° |
| 2026-04-24 21:20 | 27.65813 | -80.48239 | 19524 ft | 427 kts | 164° |
| 2026-04-24 21:20 | 27.62994 | -80.47152 | 19923 ft | 429 kts | 162° |
| 2026-04-24 21:21 | 27.60171 | -80.45997 | 20316 ft | 432 kts | 162° |
| 2026-04-24 21:21 | 27.57334 | -80.44804 | 20696 ft | 435 kts | 161° |
| 2026-04-24 21:21 | 27.54522 | -80.43618 | 21066 ft | 438 kts | 162° |
| 2026-04-24 21:21 | 27.51655 | -80.42426 | 21440 ft | 440 kts | 162° |
| 2026-04-24 21:22 | 27.48763 | -80.41246 | 21811 ft | 443 kts | 162° |
| 2026-04-24 21:22 | 27.45850 | -80.40073 | 22179 ft | 445 kts | 162° |
| 2026-04-24 21:22 | 27.42918 | -80.38901 | 22548 ft | 448 kts | 162° |
| 2026-04-24 21:22 | 27.40010 | -80.37741 | 22894 ft | 450 kts | 162° |
| 2026-04-24 21:23 | 27.37052 | -80.36563 | 23239 ft | 452 kts | 162° |
| 2026-04-24 21:23 | 27.34073 | -80.35374 | 23567 ft | 455 kts | 162° |
| 2026-04-24 21:23 | 27.31083 | -80.34175 | 23845 ft | 457 kts | 162° |
| 2026-04-24 21:23 | 27.28077 | -80.32965 | 24135 ft | 459 kts | 162° |
| 2026-04-24 21:24 | 27.25057 | -80.31746 | 24415 ft | 461 kts | 162° |
| 2026-04-24 21:24 | 27.22026 | -80.30526 | 24702 ft | 463 kts | 162° |
| 2026-04-24 21:24 | 27.18987 | -80.29305 | 24983 ft | 465 kts | 162° |
| 2026-04-24 21:24 | 27.15929 | -80.28078 | 25265 ft | 467 kts | 162° |
| 2026-04-24 21:25 | 27.12862 | -80.26851 | 25523 ft | 469 kts | 163° |
| 2026-04-24 21:25 | 27.09823 | -80.25639 | 25809 ft | 470 kts | 163° |
| 2026-04-24 21:25 | 27.06727 | -80.24406 | 26078 ft | 472 kts | 163° |
| 2026-04-24 21:25 | 27.03620 | -80.23168 | 26342 ft | 474 kts | 163° |
| 2026-04-24 21:26 | 27.00503 | -80.21926 | 26589 ft | 476 kts | 163° |
| 2026-04-24 21:26 | 26.97372 | -80.20676 | 26837 ft | 478 kts | 163° |
| 2026-04-24 21:26 | 26.94236 | -80.19421 | 27074 ft | 480 kts | 163° |
| 2026-04-24 21:26 | 26.91078 | -80.18158 | 27307 ft | 481 kts | 163° |
| 2026-04-24 21:27 | 26.87908 | -80.16893 | 27545 ft | 483 kts | 163° |
| 2026-04-24 21:27 | 26.84772 | -80.15644 | 27785 ft | 485 kts | 163° |
| 2026-04-24 21:27 | 26.81580 | -80.14374 | 27994 ft | 487 kts | 163° |
| 2026-04-24 21:27 | 26.78373 | -80.13100 | 28212 ft | 489 kts | 163° |
| 2026-04-24 21:28 | 26.75163 | -80.11823 | 28430 ft | 490 kts | 163° |
| 2026-04-24 21:28 | 26.71942 | -80.10541 | 28686 ft | 491 kts | 163° |
| 2026-04-24 21:28 | 26.68722 | -80.09260 | 29008 ft | 490 kts | 163° |
| 2026-04-24 21:28 | 26.65551 | -80.08002 | 29321 ft | 489 kts | 163° |
| 2026-04-24 21:29 | 26.62341 | -80.06730 | 29651 ft | 489 kts | 163° |
| 2026-04-24 21:29 | 26.59136 | -80.05463 | 29968 ft | 488 kts | 163° |
| 2026-04-24 21:29 | 26.55928 | -80.04196 | 30246 ft | 488 kts | 163° |
| 2026-04-24 21:29 | 26.52724 | -80.02934 | 30516 ft | 487 kts | 163° |
| 2026-04-24 21:30 | 26.49522 | -80.01684 | 30753 ft | 487 kts | 164° |
| 2026-04-24 21:30 | 26.46313 | -80.00441 | 30991 ft | 487 kts | 164° |
| 2026-04-24 21:30 | 26.43113 | -79.99208 | 31234 ft | 487 kts | 164° |
| 2026-04-24 21:30 | 26.39954 | -79.97991 | 31480 ft | 486 kts | 164° |
| 2026-04-24 21:31 | 26.36747 | -79.96751 | 31722 ft | 486 kts | 164° |
| 2026-04-24 21:31 | 26.33549 | -79.95514 | 31976 ft | 486 kts | 164° |
| 2026-04-24 21:31 | 26.30357 | -79.94278 | 32220 ft | 486 kts | 164° |
| 2026-04-24 21:31 | 26.27162 | -79.93042 | 32467 ft | 485 kts | 164° |
| 2026-04-24 21:32 | 26.23964 | -79.91805 | 32718 ft | 485 kts | 164° |
| 2026-04-24 21:32 | 26.20771 | -79.90573 | 32928 ft | 485 kts | 165° |
| 2026-04-24 21:32 | 26.17566 | -79.89338 | 33083 ft | 487 kts | 165° |
| 2026-04-24 21:32 | 26.14356 | -79.88103 | 33244 ft | 489 kts | 165° |
| 2026-04-24 21:33 | 26.11173 | -79.86877 | 33451 ft | 489 kts | 165° |
| 2026-04-24 21:33 | 26.09000 | -79.86040 | 33591 ft | 490 kts | 165° |
| 2026-04-24 21:33 | 26.04726 | -79.84392 | 33892 ft | 490 kts | 165° |
| 2026-04-24 21:33 | 26.01501 | -79.83148 | 34092 ft | 490 kts | 165° |
| 2026-04-24 21:34 | 25.98269 | -79.81903 | 34296 ft | 490 kts | 165° |
| 2026-04-24 21:34 | 25.95053 | -79.80669 | 34498 ft | 489 kts | 165° |
| 2026-04-24 21:34 | 25.91873 | -79.79448 | 34714 ft | 489 kts | 164° |
| 2026-04-24 21:34 | 25.88669 | -79.78215 | 34918 ft | 485 kts | 165° |
| 2026-04-24 21:35 | 25.85476 | -79.76985 | 34972 ft | 485 kts | 165° |
| 2026-04-24 21:35 | 25.79092 | -79.74540 | 34975 ft | 484 kts | 165° |
| 2026-04-24 21:36 | 25.72706 | -79.72105 | 34976 ft | 484 kts | 165° |
| 2026-04-24 21:36 | 25.66370 | -79.69678 | 34976 ft | 485 kts | 165° |
| 2026-04-24 21:37 | 25.59980 | -79.67232 | 34972 ft | 485 kts | 165° |
| 2026-04-24 21:37 | 25.53579 | -79.64786 | 34953 ft | 486 kts | 165° |
| 2026-04-24 21:38 | 25.47209 | -79.62359 | 34950 ft | 487 kts | 165° |
| 2026-04-24 21:38 | 25.40779 | -79.59915 | 34957 ft | 488 kts | 165° |
| 2026-04-24 21:39 | 25.34378 | -79.57482 | 34961 ft | 488 kts | 165° |
| 2026-04-24 21:39 | 25.27952 | -79.55046 | 34965 ft | 488 kts | 165° |
| 2026-04-24 21:40 | 25.21511 | -79.52602 | 34937 ft | 489 kts | 165° |
| 2026-04-24 21:40 | 25.15094 | -79.50163 | 34938 ft | 490 kts | 165° |
| 2026-04-24 21:41 | 25.08622 | -79.47707 | 34942 ft | 491 kts | 165° |
| 2026-04-24 21:41 | 25.03234 | -79.45673 | 34943 ft | 492 kts | 166° |
| 2026-04-24 21:42 | 24.96744 | -79.43232 | 34948 ft | 492 kts | 166° |
| 2026-04-24 21:42 | 24.90252 | -79.40784 | 34957 ft | 492 kts | 166° |
| 2026-04-24 21:43 | 24.83815 | -79.38346 | 34965 ft | 491 kts | 165° |
| 2026-04-24 21:43 | 24.77340 | -79.35899 | 34967 ft | 490 kts | 166° |
| 2026-04-24 21:44 | 24.70913 | -79.33479 | 34970 ft | 490 kts | 166° |
| 2026-04-24 21:44 | 24.64455 | -79.31052 | 34966 ft | 490 kts | 166° |
| 2026-04-24 21:45 | 24.57984 | -79.28626 | 34943 ft | 490 kts | 166° |
| 2026-04-24 21:45 | 24.51526 | -79.26206 | 34945 ft | 490 kts | 166° |
| 2026-04-24 21:46 | 24.45094 | -79.23799 | 34943 ft | 490 kts | 166° |
| 2026-04-24 21:46 | 24.38623 | -79.21386 | 34944 ft | 490 kts | 166° |
| 2026-04-24 21:47 | 24.32160 | -79.18967 | 34946 ft | 490 kts | 166° |
| 2026-04-24 21:47 | 24.25719 | -79.16552 | 34946 ft | 491 kts | 166° |
| 2026-04-24 21:48 | 24.19246 | -79.14133 | 34944 ft | 491 kts | 166° |
| 2026-04-24 21:48 | 24.12813 | -79.11744 | 34946 ft | 491 kts | 166° |
| 2026-04-24 21:49 | 24.06326 | -79.09331 | 34947 ft | 491 kts | 166° |
| 2026-04-24 21:49 | 23.99836 | -79.07006 | 34947 ft | 488 kts | 171° |
| 2026-04-24 21:50 | 23.93244 | -79.05628 | 34939 ft | 484 kts | 175° |
| 2026-04-24 21:50 | 23.86605 | -79.04320 | 34974 ft | 483 kts | 175° |
| 2026-04-24 21:51 | 23.80002 | -79.03013 | 34982 ft | 481 kts | 175° |
| 2026-04-24 21:51 | 23.73447 | -79.01721 | 34980 ft | 480 kts | 175° |
| 2026-04-24 21:52 | 23.66866 | -79.00418 | 34951 ft | 480 kts | 175° |
| 2026-04-24 21:52 | 23.60330 | -78.99126 | 34949 ft | 479 kts | 175° |
| 2026-04-24 21:53 | 23.53751 | -78.97830 | 34946 ft | 480 kts | 175° |
| 2026-04-24 21:53 | 23.47193 | -78.96536 | 34950 ft | 480 kts | 175° |
| 2026-04-24 21:54 | 23.40609 | -78.95239 | 34958 ft | 480 kts | 175° |
| 2026-04-24 21:54 | 23.34015 | -78.93946 | 34927 ft | 480 kts | 175° |
| 2026-04-24 21:55 | 23.27471 | -78.92658 | 34937 ft | 480 kts | 175° |
| 2026-04-24 21:55 | 23.20886 | -78.91373 | 34943 ft | 480 kts | 175° |
| 2026-04-24 21:56 | 23.14297 | -78.90083 | 34941 ft | 481 kts | 175° |
| 2026-04-24 21:56 | 23.07749 | -78.88790 | 34944 ft | 481 kts | 175° |
| 2026-04-24 21:57 | 23.01144 | -78.87494 | 34917 ft | 481 kts | 175° |
| 2026-04-24 21:57 | 22.94551 | -78.86202 | 34932 ft | 481 kts | 175° |
| 2026-04-24 21:58 | 22.87983 | -78.84918 | 34933 ft | 481 kts | 175° |
| 2026-04-24 21:58 | 22.81391 | -78.83636 | 34936 ft | 481 kts | 175° |
| 2026-04-24 21:59 | 22.74798 | -78.82342 | 34939 ft | 481 kts | 175° |
| 2026-04-24 21:59 | 22.68237 | -78.81062 | 34914 ft | 481 kts | 175° |
| 2026-04-24 22:00 | 22.61630 | -78.79773 | 34927 ft | 481 kts | 175° |
| 2026-04-24 22:00 | 22.55027 | -78.78492 | 34930 ft | 481 kts | 175° |
| 2026-04-24 22:01 | 22.48470 | -78.77214 | 34936 ft | 481 kts | 175° |
| 2026-04-24 22:01 | 22.41870 | -78.75932 | 34941 ft | 481 kts | 175° |
| 2026-04-24 22:02 | 22.35268 | -78.74654 | 34931 ft | 480 kts | 175° |
| 2026-04-24 22:02 | 22.28729 | -78.73387 | 34950 ft | 479 kts | 175° |
| 2026-04-24 22:03 | 22.22161 | -78.72119 | 34949 ft | 478 kts | 175° |
| 2026-04-24 22:03 | 22.15604 | -78.70850 | 34946 ft | 478 kts | 175° |
| 2026-04-24 22:04 | 22.09052 | -78.69576 | 34949 ft | 478 kts | 175° |
| 2026-04-24 22:04 | 22.02536 | -78.68316 | 34942 ft | 478 kts | 174° |
| 2026-04-24 22:05 | 21.95977 | -78.67058 | 34957 ft | 477 kts | 174° |
| 2026-04-24 22:05 | 21.89444 | -78.65796 | 34964 ft | 475 kts | 174° |
| 2026-04-24 22:06 | 21.82978 | -78.64552 | 34963 ft | 474 kts | 174° |
| 2026-04-24 22:06 | 21.76478 | -78.63306 | 34961 ft | 474 kts | 174° |
| 2026-04-24 22:07 | 21.69970 | -78.62055 | 34932 ft | 474 kts | 174° |
| 2026-04-24 22:07 | 21.63469 | -78.60809 | 34925 ft | 475 kts | 174° |
| 2026-04-24 22:08 | 21.56994 | -78.59566 | 34930 ft | 476 kts | 174° |
| 2026-04-24 22:08 | 21.50457 | -78.58310 | 34928 ft | 476 kts | 174° |
| 2026-04-24 22:09 | 21.43960 | -78.57069 | 34932 ft | 476 kts | 174° |
| 2026-04-24 22:09 | 21.37428 | -78.55821 | 34893 ft | 477 kts | 175° |
| 2026-04-24 22:10 | 21.30874 | -78.54574 | 34901 ft | 478 kts | 175° |
| 2026-04-24 22:10 | 21.24296 | -78.53319 | 34905 ft | 480 kts | 175° |
| 2026-04-24 22:11 | 21.17769 | -78.52074 | 34917 ft | 480 kts | 175° |
| 2026-04-24 22:11 | 21.11177 | -78.50813 | 34922 ft | 481 kts | 175° |
| 2026-04-24 22:12 | 21.04577 | -78.49551 | 34928 ft | 481 kts | 175° |
| 2026-04-24 22:12 | 20.97974 | -78.48293 | 34927 ft | 481 kts | 175° |
| 2026-04-24 22:13 | 20.91416 | -78.47050 | 34923 ft | 481 kts | 175° |
| 2026-04-24 22:13 | 20.84815 | -78.45791 | 34928 ft | 481 kts | 175° |
| 2026-04-24 22:14 | 20.78218 | -78.44534 | 34926 ft | 481 kts | 175° |
| 2026-04-24 22:14 | 20.71659 | -78.43295 | 34902 ft | 481 kts | 175° |
| 2026-04-24 22:15 | 20.65057 | -78.42048 | 34906 ft | 482 kts | 175° |
| 2026-04-24 22:15 | 20.58437 | -78.40795 | 34908 ft | 482 kts | 175° |
| 2026-04-24 22:16 | 20.51818 | -78.39541 | 34914 ft | 483 kts | 175° |
| 2026-04-24 22:16 | 20.45198 | -78.38295 | 34912 ft | 483 kts | 175° |
| 2026-04-24 22:17 | 20.38620 | -78.37053 | 34894 ft | 484 kts | 175° |
| 2026-04-24 22:17 | 20.31962 | -78.35801 | 34901 ft | 485 kts | 175° |
| 2026-04-24 22:18 | 20.25345 | -78.34557 | 34908 ft | 486 kts | 175° |
| 2026-04-24 22:18 | 20.18675 | -78.33297 | 34913 ft | 486 kts | 175° |
| 2026-04-24 22:19 | 20.12003 | -78.32041 | 34918 ft | 487 kts | 175° |
| 2026-04-24 22:19 | 20.05331 | -78.30780 | 34905 ft | 487 kts | 175° |
| 2026-04-24 22:20 | 19.98685 | -78.29530 | 34915 ft | 487 kts | 175° |
| 2026-04-24 22:20 | 19.92019 | -78.28163 | 34930 ft | 488 kts | 173° |
| 2026-04-24 22:21 | 19.85383 | -78.26582 | 34933 ft | 489 kts | 172° |
| 2026-04-24 22:21 | 19.78773 | -78.24986 | 34934 ft | 488 kts | 172° |
| 2026-04-24 22:22 | 19.72162 | -78.23454 | 34902 ft | 488 kts | 173° |
| 2026-04-24 22:22 | 19.65509 | -78.21941 | 34913 ft | 488 kts | 173° |
| 2026-04-24 22:23 | 19.58860 | -78.20425 | 34921 ft | 488 kts | 173° |
| 2026-04-24 22:23 | 19.52258 | -78.18906 | 34924 ft | 488 kts | 173° |
| 2026-04-24 22:24 | 19.45626 | -78.17380 | 34924 ft | 488 kts | 173° |
| 2026-04-24 22:24 | 19.38983 | -78.15861 | 34898 ft | 487 kts | 173° |
| 2026-04-24 22:25 | 19.32350 | -78.14345 | 34907 ft | 487 kts | 173° |
| 2026-04-24 22:25 | 19.25762 | -78.12834 | 34911 ft | 487 kts | 173° |
| 2026-04-24 22:26 | 19.19126 | -78.11319 | 34912 ft | 487 kts | 173° |
| 2026-04-24 22:26 | 19.12534 | -78.09826 | 34914 ft | 487 kts | 173° |
| 2026-04-24 22:27 | 19.05908 | -78.08312 | 34890 ft | 486 kts | 173° |
| 2026-04-24 22:27 | 18.99294 | -78.06801 | 34900 ft | 486 kts | 173° |
| 2026-04-24 22:28 | 18.92680 | -78.05296 | 34910 ft | 485 kts | 173° |
| 2026-04-24 22:28 | 18.86099 | -78.03799 | 34914 ft | 485 kts | 173° |
| 2026-04-24 22:29 | 18.76176 | -78.01543 | 34909 ft | 485 kts | 173° |
| 2026-04-24 22:29 | 18.69610 | -78.00048 | 34874 ft | 485 kts | 173° |
| 2026-04-24 22:30 | 18.63009 | -77.98553 | 34881 ft | 484 kts | 173° |
| 2026-04-24 22:30 | 18.57517 | -77.97309 | 34879 ft | 484 kts | 173° |
| 2026-04-24 22:31 | 18.50951 | -77.95820 | 34884 ft | 484 kts | 173° |
| 2026-04-24 22:31 | 18.44364 | -77.94335 | 34924 ft | 482 kts | 173° |
| 2026-04-24 22:32 | 18.37808 | -77.92857 | 34899 ft | 480 kts | 172° |
| 2026-04-24 22:32 | 18.31329 | -77.91385 | 34929 ft | 477 kts | 172° |
| 2026-04-24 22:33 | 18.24839 | -77.89917 | 34951 ft | 476 kts | 173° |
| 2026-04-24 22:33 | 18.18368 | -77.88457 | 34943 ft | 474 kts | 173° |
| 2026-04-24 22:34 | 18.11952 | -77.87015 | 34944 ft | 474 kts | 173° |
| 2026-04-24 22:34 | 18.05503 | -77.85566 | 34931 ft | 473 kts | 173° |
| 2026-04-24 22:35 | 17.99061 | -77.84114 | 34922 ft | 471 kts | 173° |
| 2026-04-24 22:35 | 17.92699 | -77.82682 | 34936 ft | 469 kts | 173° |
| 2026-04-24 22:36 | 17.86312 | -77.81240 | 34939 ft | 468 kts | 173° |
| 2026-04-24 22:36 | 17.79984 | -77.79816 | 34940 ft | 467 kts | 173° |
| 2026-04-24 22:37 | 17.73613 | -77.78392 | 34934 ft | 467 kts | 173° |
| 2026-04-24 22:37 | 17.67245 | -77.76969 | 34932 ft | 467 kts | 173° |
| 2026-04-24 22:38 | 17.60926 | -77.75544 | 34923 ft | 467 kts | 173° |
| 2026-04-24 22:38 | 17.54553 | -77.74114 | 34924 ft | 467 kts | 173° |
| 2026-04-24 22:39 | 17.48221 | -77.72696 | 34928 ft | 467 kts | 173° |
| 2026-04-24 22:39 | 17.41853 | -77.71273 | 34929 ft | 467 kts | 173° |
| 2026-04-24 22:40 | 17.35506 | -77.69857 | 34900 ft | 467 kts | 173° |
| 2026-04-24 22:40 | 17.29143 | -77.68433 | 34926 ft | 466 kts | 173° |
| 2026-04-24 22:41 | 17.22849 | -77.67029 | 34943 ft | 465 kts | 173° |
| 2026-04-24 22:41 | 17.16507 | -77.65620 | 34943 ft | 464 kts | 173° |
| 2026-04-24 22:42 | 17.10186 | -77.64212 | 34946 ft | 464 kts | 173° |
| 2026-04-24 22:42 | 17.03904 | -77.62817 | 34938 ft | 463 kts | 173° |
| 2026-04-24 22:43 | 16.97590 | -77.61410 | 34921 ft | 463 kts | 173° |
| 2026-04-24 22:43 | 16.91322 | -77.60018 | 34932 ft | 462 kts | 173° |
| 2026-04-24 22:44 | 16.85024 | -77.58612 | 34938 ft | 461 kts | 174° |
| 2026-04-24 22:44 | 16.78762 | -77.57214 | 34950 ft | 458 kts | 174° |
| 2026-04-24 22:45 | 16.72563 | -77.55839 | 34947 ft | 456 kts | 174° |
| 2026-04-24 22:45 | 16.66357 | -77.54467 | 34920 ft | 455 kts | 175° |
| 2026-04-24 22:46 | 16.60170 | -77.53099 | 34934 ft | 454 kts | 175° |
| 2026-04-24 22:46 | 16.54019 | -77.51736 | 34937 ft | 453 kts | 175° |
| 2026-04-24 22:47 | 16.47851 | -77.50370 | 34936 ft | 452 kts | 175° |
| 2026-04-24 22:47 | 16.41734 | -77.49012 | 34933 ft | 452 kts | 175° |
| 2026-04-24 22:48 | 16.35581 | -77.47650 | 34927 ft | 451 kts | 175° |
| 2026-04-24 22:48 | 16.29414 | -77.46289 | 34906 ft | 451 kts | 175° |
| 2026-04-24 22:49 | 16.23306 | -77.44939 | 34919 ft | 451 kts | 175° |
| 2026-04-24 22:49 | 16.17194 | -77.43590 | 34926 ft | 450 kts | 175° |
| 2026-04-24 22:50 | 16.11061 | -77.42233 | 34920 ft | 450 kts | 175° |
| 2026-04-24 22:50 | 16.04929 | -77.40882 | 34920 ft | 449 kts | 175° |
| 2026-04-24 22:51 | 15.98834 | -77.39543 | 34916 ft | 449 kts | 175° |
| 2026-04-24 22:51 | 15.92706 | -77.38245 | 34908 ft | 448 kts | 177° |
| 2026-04-24 22:52 | 15.86568 | -77.37041 | 34919 ft | 447 kts | 177° |
| 2026-04-24 22:52 | 15.80439 | -77.35849 | 34921 ft | 447 kts | 177° |
| 2026-04-24 22:53 | 15.74352 | -77.34647 | 34924 ft | 447 kts | 177° |
| 2026-04-24 22:53 | 15.68236 | -77.33435 | 34924 ft | 447 kts | 177° |
| 2026-04-24 22:54 | 15.62114 | -77.32206 | 34904 ft | 447 kts | 177° |
| 2026-04-24 22:54 | 15.56022 | -77.30981 | 34903 ft | 448 kts | 177° |
| 2026-04-24 22:55 | 15.49883 | -77.29763 | 34907 ft | 449 kts | 177° |
| 2026-04-24 22:55 | 15.43743 | -77.28549 | 34911 ft | 449 kts | 177° |
| 2026-04-24 22:56 | 15.37645 | -77.27341 | 34915 ft | 449 kts | 177° |
| 2026-04-24 22:56 | 15.31498 | -77.26123 | 34916 ft | 449 kts | 177° |
| 2026-04-24 22:57 | 15.25354 | -77.24903 | 34892 ft | 449 kts | 176° |
| 2026-04-24 22:57 | 15.19220 | -77.23690 | 34909 ft | 448 kts | 176° |
| 2026-04-24 22:58 | 15.13134 | -77.22489 | 34911 ft | 447 kts | 176° |
| 2026-04-24 22:58 | 15.07020 | -77.21278 | 34926 ft | 445 kts | 176° |
| 2026-04-24 22:59 | 15.00966 | -77.20080 | 34926 ft | 444 kts | 176° |
| 2026-04-24 23:00 | 14.91845 | -77.18251 | 34904 ft | 444 kts | 175° |
| 2026-04-24 23:00 | 14.85822 | -77.17027 | 34907 ft | 444 kts | 175° |
| 2026-04-24 23:01 | 14.79748 | -77.15798 | 34907 ft | 444 kts | 175° |
| 2026-04-24 23:01 | 14.73682 | -77.14578 | 34915 ft | 444 kts | 175° |
| 2026-04-24 23:02 | 14.67599 | -77.13361 | 34925 ft | 444 kts | 175° |
| 2026-04-24 23:02 | 14.61552 | -77.12147 | 34912 ft | 444 kts | 175° |
| 2026-04-24 23:03 | 14.55466 | -77.10921 | 34905 ft | 445 kts | 175° |
| 2026-04-24 23:03 | 14.49385 | -77.09699 | 34902 ft | 445 kts | 175° |
| 2026-04-24 23:04 | 14.43333 | -77.08489 | 34907 ft | 445 kts | 175° |
| 2026-04-24 23:04 | 14.37235 | -77.07264 | 34911 ft | 445 kts | 175° |
| 2026-04-24 23:05 | 14.31189 | -77.06051 | 34917 ft | 445 kts | 175° |
| 2026-04-24 23:05 | 14.25099 | -77.04828 | 34920 ft | 445 kts | 175° |
| 2026-04-24 23:06 | 14.18994 | -77.03601 | 34919 ft | 445 kts | 175° |
| 2026-04-24 23:06 | 14.12942 | -77.02399 | 34920 ft | 445 kts | 175° |
| 2026-04-24 23:07 | 14.06852 | -77.01188 | 34921 ft | 445 kts | 175° |
| 2026-04-24 23:07 | 14.00758 | -76.99962 | 34925 ft | 445 kts | 174° |
| 2026-04-24 23:08 | 13.94706 | -76.98740 | 34927 ft | 445 kts | 175° |
| 2026-04-24 23:08 | 13.88601 | -76.97519 | 34926 ft | 445 kts | 175° |
| 2026-04-24 23:09 | 13.82535 | -76.96315 | 34907 ft | 445 kts | 174° |
| 2026-04-24 23:09 | 13.76426 | -76.95099 | 34911 ft | 446 kts | 174° |
| 2026-04-24 23:10 | 13.70363 | -76.93892 | 34917 ft | 446 kts | 174° |
| 2026-04-24 23:10 | 13.64276 | -76.92677 | 34921 ft | 446 kts | 174° |
| 2026-04-24 23:11 | 13.58166 | -76.91457 | 34924 ft | 446 kts | 174° |
| 2026-04-24 23:11 | 13.52097 | -76.90253 | 34925 ft | 446 kts | 174° |
| 2026-04-24 23:12 | 13.45988 | -76.89040 | 34913 ft | 446 kts | 174° |
| 2026-04-24 23:12 | 13.39885 | -76.87818 | 34914 ft | 447 kts | 174° |
| 2026-04-24 23:13 | 13.33770 | -76.86597 | 34918 ft | 447 kts | 174° |
| 2026-04-24 23:13 | 13.27682 | -76.85395 | 34916 ft | 447 kts | 174° |
| 2026-04-24 23:14 | 13.21574 | -76.84190 | 34917 ft | 447 kts | 174° |
| 2026-04-24 23:14 | 13.15490 | -76.82979 | 34920 ft | 447 kts | 174° |
| 2026-04-24 23:15 | 13.09370 | -76.81759 | 34916 ft | 447 kts | 173° |
| 2026-04-24 23:15 | 13.03256 | -76.80544 | 34920 ft | 447 kts | 173° |
| 2026-04-24 23:16 | 12.97169 | -76.79342 | 34920 ft | 447 kts | 173° |
| 2026-04-24 23:16 | 12.91032 | -76.78125 | 34922 ft | 447 kts | 173° |
| 2026-04-24 23:17 | 12.84944 | -76.76920 | 34920 ft | 447 kts | 173° |
| 2026-04-24 23:17 | 12.78822 | -76.75609 | 34914 ft | 449 kts | 171° |
| 2026-04-24 23:18 | 12.72778 | -76.74104 | 34921 ft | 450 kts | 170° |
| 2026-04-24 23:18 | 12.66690 | -76.72544 | 34921 ft | 449 kts | 171° |
| 2026-04-24 23:19 | 12.60599 | -76.71092 | 34918 ft | 449 kts | 171° |
| 2026-04-24 23:19 | 12.54527 | -76.69699 | 34924 ft | 449 kts | 171° |
| 2026-04-24 23:20 | 12.48423 | -76.68283 | 34925 ft | 449 kts | 171° |
| 2026-04-24 23:20 | 12.43350 | -76.67089 | 34919 ft | 449 kts | 171° |
| 2026-04-24 23:21 | 12.36258 | -76.65421 | 34931 ft | 449 kts | 171° |
| 2026-04-24 23:21 | 12.31174 | -76.64230 | 34927 ft | 449 kts | 171° |
| 2026-04-24 23:22 | 12.25064 | -76.62798 | 34927 ft | 449 kts | 171° |
| 2026-04-24 23:22 | 12.18960 | -76.61366 | 34927 ft | 449 kts | 171° |
| 2026-04-24 23:23 | 12.12867 | -76.59940 | 34934 ft | 449 kts | 171° |
| 2026-04-24 23:23 | 12.06799 | -76.58527 | 34925 ft | 449 kts | 171° |
| 2026-04-24 23:24 | 12.00684 | -76.57099 | 34922 ft | 449 kts | 171° |
| 2026-04-24 23:24 | 11.94581 | -76.55670 | 34929 ft | 449 kts | 171° |
| 2026-04-24 23:25 | 11.88505 | -76.54255 | 34924 ft | 449 kts | 171° |
| 2026-04-24 23:25 | 11.82400 | -76.52832 | 34930 ft | 450 kts | 171° |
| 2026-04-24 23:26 | 11.76330 | -76.51415 | 34927 ft | 450 kts | 171° |
| 2026-04-24 23:26 | 11.70221 | -76.49990 | 34926 ft | 449 kts | 170° |
| 2026-04-24 23:27 | 11.64162 | -76.48578 | 34939 ft | 447 kts | 170° |
| 2026-04-24 23:27 | 11.58087 | -76.47165 | 34940 ft | 446 kts | 170° |
| 2026-04-24 23:28 | 11.52034 | -76.45758 | 34935 ft | 445 kts | 170° |
| 2026-04-24 23:28 | 11.46019 | -76.44356 | 34934 ft | 445 kts | 170° |
| 2026-04-24 23:29 | 11.39963 | -76.42951 | 34939 ft | 445 kts | 170° |
| 2026-04-24 23:29 | 11.33959 | -76.41551 | 34928 ft | 445 kts | 169° |
| 2026-04-24 23:30 | 11.27922 | -76.40141 | 34924 ft | 445 kts | 169° |
| 2026-04-24 23:30 | 11.21897 | -76.38744 | 34925 ft | 445 kts | 170° |
| 2026-04-24 23:31 | 11.15845 | -76.37347 | 34926 ft | 445 kts | 170° |
| 2026-04-24 23:31 | 11.09792 | -76.35945 | 34927 ft | 445 kts | 170° |
| 2026-04-24 23:32 | 11.03772 | -76.34550 | 34930 ft | 445 kts | 169° |
| 2026-04-24 23:32 | 10.97712 | -76.33138 | 34925 ft | 445 kts | 169° |
| 2026-04-24 23:33 | 10.91694 | -76.31740 | 34927 ft | 446 kts | 169° |
| 2026-04-24 23:33 | 10.85638 | -76.30333 | 34928 ft | 446 kts | 169° |
| 2026-04-24 23:34 | 10.79582 | -76.28934 | 34926 ft | 446 kts | 169° |
| 2026-04-24 23:34 | 10.73563 | -76.27542 | 34926 ft | 446 kts | 169° |
| 2026-04-24 23:35 | 10.67501 | -76.26138 | 34924 ft | 446 kts | 169° |
| 2026-04-24 23:35 | 10.61442 | -76.24729 | 34925 ft | 446 kts | 169° |
| 2026-04-24 23:36 | 10.55420 | -76.23339 | 34928 ft | 446 kts | 169° |
| 2026-04-24 23:36 | 10.49367 | -76.21945 | 34928 ft | 446 kts | 169° |
| 2026-04-24 23:37 | 10.43313 | -76.20548 | 34930 ft | 446 kts | 169° |
| 2026-04-24 23:37 | 10.34233 | -76.18448 | 34927 ft | 446 kts | 169° |
| 2026-04-24 23:38 | 10.28216 | -76.17061 | 34925 ft | 446 kts | 169° |
| 2026-04-24 23:38 | 10.22168 | -76.15665 | 34931 ft | 445 kts | 169° |
| 2026-04-24 23:39 | 10.16117 | -76.14275 | 34938 ft | 445 kts | 169° |
| 2026-04-24 23:39 | 10.10076 | -76.12876 | 34912 ft | 446 kts | 168° |
| 2026-04-24 23:40 | 10.04000 | -76.11472 | 34907 ft | 446 kts | 169° |
| 2026-04-24 23:40 | 9.97990 | -76.10090 | 34904 ft | 445 kts | 169° |
| 2026-04-24 23:41 | 9.91949 | -76.08703 | 34907 ft | 445 kts | 169° |
| 2026-04-24 23:41 | 9.85902 | -76.07309 | 34912 ft | 445 kts | 168° |
| 2026-04-24 23:42 | 9.79862 | -76.05911 | 34908 ft | 445 kts | 168° |
| 2026-04-24 23:42 | 9.73848 | -76.04528 | 34909 ft | 445 kts | 169° |
| 2026-04-24 23:43 | 9.67800 | -76.03138 | 34910 ft | 445 kts | 169° |
| 2026-04-24 23:43 | 9.61740 | -76.01747 | 34908 ft | 446 kts | 169° |
| 2026-04-24 23:44 | 9.55689 | -76.00357 | 34905 ft | 445 kts | 168° |
| 2026-04-24 23:44 | 9.49637 | -75.98966 | 34900 ft | 446 kts | 168° |
| 2026-04-24 23:45 | 9.43628 | -75.97586 | 34900 ft | 446 kts | 168° |
| 2026-04-24 23:45 | 9.37572 | -75.96202 | 34898 ft | 446 kts | 168° |
| 2026-04-24 23:46 | 9.31508 | -75.94814 | 34909 ft | 446 kts | 168° |
| 2026-04-24 23:46 | 9.25459 | -75.93418 | 34904 ft | 446 kts | 168° |
| 2026-04-24 23:47 | 9.19439 | -75.92036 | 34899 ft | 446 kts | 168° |
| 2026-04-24 23:47 | 9.13369 | -75.90645 | 34889 ft | 446 kts | 168° |
| 2026-04-24 23:48 | 9.07344 | -75.89261 | 34871 ft | 446 kts | 168° |
| 2026-04-24 23:48 | 9.01283 | -75.87881 | 34855 ft | 446 kts | 168° |
| 2026-04-24 23:49 | 8.95215 | -75.86490 | 34835 ft | 446 kts | 168° |
| 2026-04-24 23:49 | 8.89155 | -75.85100 | 34821 ft | 446 kts | 168° |
| 2026-04-24 23:50 | 8.83129 | -75.83717 | 34819 ft | 446 kts | 168° |
| 2026-04-24 23:50 | 8.77060 | -75.82319 | 34817 ft | 446 kts | 167° |
| 2026-04-24 23:51 | 8.71021 | -75.80945 | 34826 ft | 446 kts | 168° |
| 2026-04-24 23:51 | 8.64941 | -75.79566 | 34845 ft | 446 kts | 168° |
| 2026-04-24 23:52 | 8.58906 | -75.78189 | 34862 ft | 447 kts | 168° |
| 2026-04-24 23:52 | 8.52828 | -75.76794 | 34881 ft | 447 kts | 168° |
| 2026-04-24 23:53 | 8.46754 | -75.75406 | 34901 ft | 447 kts | 168° |
| 2026-04-24 23:53 | 8.40709 | -75.74024 | 34901 ft | 447 kts | 167° |
| 2026-04-24 23:54 | 8.34664 | -75.72645 | 34905 ft | 447 kts | 167° |
| 2026-04-24 23:54 | 8.28591 | -75.71263 | 34905 ft | 447 kts | 167° |
| 2026-04-24 23:55 | 8.22516 | -75.69877 | 34905 ft | 447 kts | 167° |
| 2026-04-24 23:55 | 8.16476 | -75.68497 | 34906 ft | 447 kts | 167° |
| 2026-04-24 23:56 | 8.10403 | -75.67113 | 34905 ft | 447 kts | 167° |
| 2026-04-24 23:56 | 8.04339 | -75.65729 | 34912 ft | 446 kts | 167° |
| 2026-04-24 23:57 | 7.98305 | -75.64356 | 34914 ft | 446 kts | 167° |
| 2026-04-24 23:57 | 7.92233 | -75.62979 | 34933 ft | 447 kts | 167° |
| 2026-04-24 23:58 | 7.86166 | -75.61595 | 34929 ft | 446 kts | 167° |
| 2026-04-24 23:58 | 7.80125 | -75.60220 | 34924 ft | 446 kts | 167° |
| 2026-04-24 23:59 | 7.74052 | -75.58840 | 34960 ft | 447 kts | 167° |
| 2026-04-24 23:59 | 7.68019 | -75.57466 | 34957 ft | 447 kts | 167° |
| 2026-04-25 00:00 | 7.61936 | -75.56078 | 34990 ft | 448 kts | 167° |
| 2026-04-25 00:00 | 7.55841 | -75.54687 | 34991 ft | 447 kts | 167° |
| 2026-04-25 00:01 | 7.49752 | -75.53304 | 35020 ft | 448 kts | 167° |
| 2026-04-25 00:01 | 7.43692 | -75.51929 | 35022 ft | 448 kts | 167° |
| 2026-04-25 00:02 | 7.37598 | -75.50547 | 35024 ft | 448 kts | 167° |
| 2026-04-25 00:02 | 7.31506 | -75.49165 | 35056 ft | 449 kts | 167° |
| 2026-04-25 00:03 | 7.25436 | -75.47790 | 35059 ft | 449 kts | 167° |
| 2026-04-25 00:03 | 7.19331 | -75.46407 | 35042 ft | 448 kts | 167° |
| 2026-04-25 00:04 | 7.16322 | -75.45724 | 34512 ft | 447 kts | 166° |
| 2026-04-25 00:04 | 7.13278 | -75.45032 | 33726 ft | 450 kts | 167° |
| 2026-04-25 00:04 | 7.10209 | -75.44335 | 32878 ft | 453 kts | 167° |
| 2026-04-25 00:04 | 7.07125 | -75.43638 | 32028 ft | 455 kts | 167° |
| 2026-04-25 00:05 | 7.04027 | -75.42937 | 31242 ft | 457 kts | 167° |
| 2026-04-25 00:05 | 7.00911 | -75.42229 | 30414 ft | 459 kts | 167° |
| 2026-04-25 00:05 | 6.97784 | -75.41515 | 29478 ft | 461 kts | 167° |
| 2026-04-25 00:05 | 6.94659 | -75.40802 | 28736 ft | 458 kts | 167° |
| 2026-04-25 00:06 | 6.91586 | -75.40104 | 28040 ft | 455 kts | 167° |
| 2026-04-25 00:06 | 6.88506 | -75.39408 | 27385 ft | 451 kts | 168° |
| 2026-04-25 00:06 | 6.85440 | -75.38716 | 26734 ft | 448 kts | 168° |
| 2026-04-25 00:06 | 6.82406 | -75.38032 | 26105 ft | 445 kts | 168° |
| 2026-04-25 00:07 | 6.79385 | -75.37350 | 25492 ft | 444 kts | 168° |
| 2026-04-25 00:07 | 6.76366 | -75.36667 | 25258 ft | 445 kts | 168° |
| 2026-04-25 00:07 | 6.73372 | -75.35989 | 25143 ft | 445 kts | 168° |
| 2026-04-25 00:07 | 6.70329 | -75.35299 | 25164 ft | 447 kts | 168° |
| 2026-04-25 00:08 | 6.67287 | -75.34611 | 25163 ft | 447 kts | 168° |
| 2026-04-25 00:08 | 6.64286 | -75.33931 | 25163 ft | 447 kts | 168° |
| 2026-04-25 00:08 | 6.61249 | -75.33241 | 25182 ft | 447 kts | 168° |
| 2026-04-25 00:08 | 6.58208 | -75.32549 | 25179 ft | 447 kts | 168° |
| 2026-04-25 00:09 | 6.56155 | -75.32083 | 25179 ft | 447 kts | 168° |
| 2026-04-25 00:09 | 6.53151 | -75.31404 | 25180 ft | 447 kts | 168° |
| 2026-04-25 00:09 | 6.50106 | -75.30718 | 25179 ft | 447 kts | 168° |
| 2026-04-25 00:09 | 6.47058 | -75.30034 | 25185 ft | 447 kts | 168° |
| 2026-04-25 00:10 | 6.44015 | -75.29346 | 25188 ft | 447 kts | 168° |
| 2026-04-25 00:10 | 6.40981 | -75.28658 | 25187 ft | 447 kts | 168° |
| 2026-04-25 00:10 | 6.37980 | -75.27978 | 25187 ft | 447 kts | 168° |
| 2026-04-25 00:10 | 6.34933 | -75.27286 | 25188 ft | 447 kts | 167° |
| 2026-04-25 00:11 | 6.31882 | -75.26592 | 25257 ft | 447 kts | 168° |
| 2026-04-25 00:11 | 6.28838 | -75.25902 | 25259 ft | 447 kts | 168° |
| 2026-04-25 00:11 | 6.25836 | -75.25222 | 25262 ft | 447 kts | 168° |
| 2026-04-25 00:11 | 6.22793 | -75.24537 | 25265 ft | 448 kts | 168° |
| 2026-04-25 00:12 | 6.19741 | -75.23851 | 25267 ft | 448 kts | 168° |
| 2026-04-25 00:12 | 6.16694 | -75.23165 | 25266 ft | 448 kts | 168° |
| 2026-04-25 00:12 | 6.13642 | -75.22477 | 25263 ft | 448 kts | 168° |
| 2026-04-25 00:12 | 6.10597 | -75.21789 | 25258 ft | 448 kts | 168° |
| 2026-04-25 00:13 | 6.07584 | -75.21105 | 25236 ft | 448 kts | 168° |
| 2026-04-25 00:13 | 6.04525 | -75.20411 | 25228 ft | 448 kts | 168° |
| 2026-04-25 00:13 | 6.01478 | -75.19721 | 25225 ft | 448 kts | 168° |
| 2026-04-25 00:13 | 5.98428 | -75.19030 | 25215 ft | 448 kts | 168° |
| 2026-04-25 00:14 | 5.95422 | -75.18352 | 25205 ft | 448 kts | 168° |
| 2026-04-25 00:14 | 5.92379 | -75.17666 | 25195 ft | 448 kts | 168° |
| 2026-04-25 00:14 | 5.89326 | -75.16979 | 25187 ft | 448 kts | 168° |
| 2026-04-25 00:14 | 5.86275 | -75.16296 | 25190 ft | 449 kts | 168° |
| 2026-04-25 00:15 | 5.83222 | -75.15610 | 25195 ft | 449 kts | 168° |
| 2026-04-25 00:15 | 5.80159 | -75.14917 | 25195 ft | 450 kts | 167° |
| 2026-04-25 00:15 | 5.77137 | -75.14232 | 25195 ft | 450 kts | 168° |
| 2026-04-25 00:15 | 5.74075 | -75.13537 | 25195 ft | 450 kts | 168° |
| 2026-04-25 00:16 | 5.71015 | -75.12846 | 25203 ft | 450 kts | 167° |
| 2026-04-25 00:16 | 5.68026 | -75.11919 | 25203 ft | 450 kts | 159° |
| 2026-04-25 00:16 | 5.65120 | -75.10726 | 25204 ft | 450 kts | 158° |
| 2026-04-25 00:16 | 5.62253 | -75.09540 | 25203 ft | 451 kts | 158° |
| 2026-04-25 00:17 | 5.59355 | -75.08338 | 25204 ft | 451 kts | 158° |
| 2026-04-25 00:17 | 5.56448 | -75.07136 | 25215 ft | 451 kts | 158° |
| 2026-04-25 00:17 | 5.53544 | -75.05938 | 25181 ft | 450 kts | 158° |
| 2026-04-25 00:17 | 5.50686 | -75.04761 | 25178 ft | 447 kts | 158° |
| 2026-04-25 00:18 | 5.47805 | -75.03573 | 25183 ft | 447 kts | 158° |
| 2026-04-25 00:18 | 5.44924 | -75.02386 | 25180 ft | 444 kts | 158° |
| 2026-04-25 00:18 | 5.42120 | -75.01231 | 25187 ft | 425 kts | 158° |
| 2026-04-25 00:18 | 5.39438 | -75.00124 | 25189 ft | 410 kts | 158° |
| 2026-04-25 00:19 | 5.36808 | -74.99037 | 25016 ft | 406 kts | 158° |
| 2026-04-25 00:19 | 5.34243 | -74.97961 | 24990 ft | 405 kts | 158° |
| 2026-04-25 00:19 | 5.31638 | -74.96854 | 24964 ft | 405 kts | 157° |
| 2026-04-25 00:19 | 5.29047 | -74.95748 | 24937 ft | 404 kts | 157° |
| 2026-04-25 00:20 | 5.26454 | -74.94641 | 24919 ft | 404 kts | 157° |
| 2026-04-25 00:20 | 5.23875 | -74.93534 | 24640 ft | 401 kts | 155° |
| 2026-04-25 00:20 | 5.21500 | -74.92094 | 24154 ft | 399 kts | 141° |
| 2026-04-25 00:20 | 5.19533 | -74.90141 | 23654 ft | 398 kts | 128° |
| 2026-04-25 00:21 | 5.18055 | -74.87836 | 23159 ft | 396 kts | 120° |
| 2026-04-25 00:21 | 5.16715 | -74.85465 | 23027 ft | 384 kts | 120° |
| 2026-04-25 00:21 | 5.15412 | -74.83169 | 22753 ft | 376 kts | 120° |
| 2026-04-25 00:21 | 5.14112 | -74.80901 | 22421 ft | 371 kts | 118° |
| 2026-04-25 00:22 | 5.13254 | -74.78518 | 22049 ft | 366 kts | 97° |
| 2026-04-25 00:22 | 5.13325 | -74.75997 | 21672 ft | 361 kts | 75° |
| 2026-04-25 00:22 | 5.14310 | -74.73715 | 21243 ft | 355 kts | 53° |
| 2026-04-25 00:22 | 5.15982 | -74.71909 | 20818 ft | 352 kts | 41° |
| 2026-04-25 00:23 | 5.17763 | -74.70224 | 20409 ft | 352 kts | 44° |
| 2026-04-25 00:23 | 5.19194 | -74.68277 | 20048 ft | 351 kts | 63° |
| 2026-04-25 00:23 | 5.19922 | -74.65948 | 19702 ft | 351 kts | 83° |
| 2026-04-25 00:23 | 5.19832 | -74.63507 | 19361 ft | 350 kts | 103° |
| 2026-04-25 00:24 | 5.18941 | -74.61252 | 19029 ft | 348 kts | 123° |
| 2026-04-25 00:24 | 5.17370 | -74.59438 | 18717 ft | 344 kts | 142° |
| 2026-04-25 00:24 | 5.15416 | -74.58056 | 18371 ft | 343 kts | 147° |
| 2026-04-25 00:24 | 5.13443 | -74.56709 | 18009 ft | 342 kts | 147° |
| 2026-04-25 00:25 | 5.11499 | -74.55385 | 17687 ft | 340 kts | 147° |
| 2026-04-25 00:25 | 5.09550 | -74.54054 | 17364 ft | 338 kts | 146° |
| 2026-04-25 00:25 | 5.07612 | -74.52731 | 17009 ft | 336 kts | 147° |
| 2026-04-25 00:25 | 5.05684 | -74.51415 | 16682 ft | 334 kts | 147° |
| 2026-04-25 00:26 | 5.03761 | -74.50103 | 16344 ft | 333 kts | 147° |
| 2026-04-25 00:26 | 5.01853 | -74.48798 | 16067 ft | 330 kts | 147° |
| 2026-04-25 00:26 | 4.99990 | -74.47523 | 15622 ft | 326 kts | 146° |
| 2026-04-25 00:26 | 4.98122 | -74.46243 | 15069 ft | 323 kts | 146° |
| 2026-04-25 00:27 | 4.96272 | -74.44979 | 14545 ft | 320 kts | 146° |
| 2026-04-25 00:27 | 4.94464 | -74.43746 | 14371 ft | 307 kts | 147° |
| 2026-04-25 00:27 | 4.92724 | -74.42559 | 14202 ft | 298 kts | 147° |
| 2026-04-25 00:27 | 4.91071 | -74.41275 | 13479 ft | 308 kts | 135° |
| 2026-04-25 00:28 | 4.89641 | -74.39523 | 13071 ft | 342 kts | 126° |
| 2026-04-25 00:28 | 4.88295 | -74.37640 | 12917 ft | 322 kts | 127° |
| 2026-04-25 00:28 | 4.87007 | -74.35908 | 12936 ft | 297 kts | 128° |
| 2026-04-25 00:28 | 4.85771 | -74.34285 | 12822 ft | 293 kts | 127° |
| 2026-04-25 00:29 | 4.84551 | -74.32678 | 12475 ft | 285 kts | 127° |
| 2026-04-25 00:29 | 4.83379 | -74.31127 | 12128 ft | 278 kts | 127° |
| 2026-04-25 00:29 | 4.82245 | -74.29627 | 11786 ft | 261 kts | 127° |
| 2026-04-25 00:29 | 4.81176 | -74.28214 | 11469 ft | 245 kts | 127° |
| 2026-04-25 00:30 | 4.80175 | -74.26889 | 11198 ft | 231 kts | 126° |
| 2026-04-25 00:30 | 4.79228 | -74.25638 | 10896 ft | 220 kts | 126° |
| 2026-04-25 00:30 | 4.78339 | -74.24462 | 10635 ft | 209 kts | 126° |
| 2026-04-25 00:30 | 4.77484 | -74.23332 | 10401 ft | 199 kts | 125° |
| 2026-04-25 00:31 | 4.76660 | -74.22243 | 10170 ft | 193 kts | 128° |
| 2026-04-25 00:31 | 4.75863 | -74.21189 | 9905 ft | 185 kts | 127° |
| 2026-04-25 00:31 | 4.75099 | -74.20178 | 9646 ft | 179 kts | 127° |
| 2026-04-25 00:31 | 4.74344 | -74.19185 | 9408 ft | 179 kts | 128° |
| 2026-04-25 00:32 | 4.73593 | -74.18190 | 9143 ft | 178 kts | 126° |
| 2026-04-25 00:32 | 4.72870 | -74.17206 | 8892 ft | 177 kts | 128° |
| 2026-04-25 00:32 | 4.72115 | -74.16218 | 8643 ft | 176 kts | 129° |
| 2026-04-25 00:32 | 4.71378 | -74.15257 | 8434 ft | 177 kts | 128° |
| 2026-04-25 00:33 | 4.70690 | -74.14343 | 8361 ft | 130 kts | 128° |
| 2026-04-25 00:33 | 4.70314 | -74.13854 | 8359 ft | 60 kts | 127° |
| 2026-04-25 00:33 | 4.70094 | -74.13651 | 8361 ft | 31 kts | 164° |
| 2026-04-25 00:33 | 4.69998 | -74.13617 | 8361 ft | 9 kts | 158° |
| 2026-04-25 00:34 | 4.69987 | -74.13612 | 8361 ft | 0 kts | 158° |
| 2026-04-25 00:34 | 4.69986 | -74.13612 | 8361 ft | 0 kts | 158° |
| 2026-04-25 00:35 | 4.69982 | -74.13610 | 8361 ft | 0 kts | 158° |
| 2026-04-25 00:35 | 4.69979 | -74.13609 | 8361 ft | 3 kts | 158° |
| 2026-04-25 00:35 | 4.69914 | -74.13582 | 8361 ft | 9 kts | 158° |
| 2026-04-25 00:35 | 4.69872 | -74.13568 | 8362 ft | 7 kts | 173° |
| 2026-04-25 00:36 | 4.69801 | -74.13607 | 8362 ft | 13 kts | 221° |
| 2026-04-25 00:36 | 4.69733 | -74.13639 | 8362 ft | 11 kts | 165° |